PNZ weather

Senador Nilo Coelho Airport
Petrolina, Pernambuco, Brazil

Public forecast

Using degrees Celsius for public forecast. Weather courtesy of forecast.io.

Current aviation weather report (METAR) for Senador Nilo Coelho Airport

Report is more than 2 hours old.

Retrieved 2020/07/08 21:45 UTC (3 hours ago):

SBPL 082145Z 14008KT CAVOK 28/18 Q1014

Aviation forecast (TAF) for Senador Nilo Coelho Airport

Retrieved 2020-07-09 00:00 UTC (34 minutes ago):

TAF SBPL 082100Z 0900/0924 16009KT CAVOK TN19/0908Z TX30/0918Z BECMG 0908/0909 BKN016 BECMG 0912/0913 SCT020 BECMG 0921/0923 CAVOK RMK PEI